• Join FlightAware (Why Join?)
  • Login
  • US Flag 
07:05PM EDT


 

Airport Tracker/Info


-or-


 

Live Flight TrackerFlight Track Log ✈ N588AC ✈ 17-Apr-2013 ✈ KBCB - KBKL

Flight Track Log - Related Links

Times and Time Zones

All times are in EDT time to prevent confusion due to time zone crossing. See the N588AC flight status page for this flight to view local times or setup timezone preferences in your user account.

Time Position Orientation Groundspeed Altitude Reporting Facility
EDT Latitude Longitude Course Direction KTS MPH feet Rate Location/Type
05:31PM 37.2214 -80.3544 317° Northwest 201 231 7,200  Level Washington Center
05:32PM 37.2783 -80.3397 12° North 201 231 9,100 2,340 Climbing Washington Center
05:33PM 37.3311 -80.4242 308° West 207 238 11,900 2,400 Climbing Washington Center
05:34PM 37.3828 -80.4900 315° West 244 281 14,000 1,860 Climbing Washington Center
05:35PM 37.4406 -80.5592 316° Northwest 269 310 15,700 1,200 Climbing Washington Center
05:36PM 37.5061 -80.7654 317° Northwest  Level FlightAware Approximate
05:37PM 37.5600 -80.7147 314° West 300 345 18,000  Level Indianapolis Center
05:38PM 37.6347 -80.8136 314° West 330 380 19,000 1,200 Climbing Indianapolis Center
05:39PM 37.6919 -80.8919 313° West 317 365 20,500 1,500 Climbing Indianapolis Center
05:40PM 37.7489 -80.9650 315° West 302 348 22,100 1,200 Climbing Indianapolis Center
05:41PM 37.8067 -81.0319 318° Northwest 292 336 23,100 1,260 Climbing Indianapolis Center
05:42PM 37.8631 -81.1089 313° West 296 341 24,800 1,620 Climbing Indianapolis Center
05:43PM 37.9394 -81.1778 325° Northwest 290 334 26,500 1,440 Climbing Indianapolis Center
05:44PM 38.0192 -81.2008 347° North 292 336 27,800 1,020 Climbing Indianapolis Center
05:45PM 38.1003 -81.2317 343° North 302 348 28,700 600 Climbing Indianapolis Center
05:46PM 38.1836 -81.2639 343° North 311 358 29,100 180 Climbing Indianapolis Center
05:47PM 38.2750 -81.2953 345° North 335 386 29,100 120 Level Indianapolis Center
05:48PM 38.3703 -81.3300 344° North 353 406 29,400 900 Climbing Indianapolis Center
05:49PM 38.4769 -81.3694 344° North 334 384 31,000 1,020 Climbing Indianapolis Center
05:50PM 38.5658 -81.4017 344° North 332 382 31,600 480 Climbing Indianapolis Center
05:51PM 38.6589 -81.4372 343° North 329 379 32,000 180 Climbing Indianapolis Center
05:52PM 38.7544 -81.4736 343° North 349 402 32,000  Level Indianapolis Center
05:53PM 38.8608 -81.5125 344° North 368 423 32,000  Level Indianapolis Center
05:55PM 38.9594 -81.5497 344° North 371 427 32,000  Level Indianapolis Center
05:56PM 39.0586 -81.5864 344° North 372 428 32,000  Level Indianapolis Center
05:57PM 39.1567 -81.6242 343° North 369 425 32,000 -120 Level Indianapolis Center
05:58PM 39.2558 -81.6614 344° North 370 426 31,800 -840 Descending Indianapolis Center
05:59PM 39.3603 -81.7000 344° North 387 445 30,300 -1,380 Descending Indianapolis Center
06:00PM 39.4661 -81.7406 344° North 396 456 29,000 -1,500 Descending Indianapolis Center
06:01PM 39.5919 -81.7900 343° North 392 451 27,300 -1,500 Descending Indianapolis Center
06:02PM 39.6958 -81.8303 343° North 391 450 25,900 -1,380 Descending Indianapolis Center
06:03PM 39.7961 -81.8694 343° North 383 441 24,500 -1,440 Descending Indianapolis Center
06:04PM 39.8969 -81.9078 344° North 375 432 23,000 -1,260 Descending Indianapolis Center
06:05PM 39.9956 -81.9458 344° North 370 426 22,000 -540 Descending Indianapolis Center
06:06PM 40.1067 -81.9844 345° North 354 407 22,000 -300 Level Indianapolis Center
06:07PM 40.2069 -81.9458 16° North 372 428 21,500 -900 Descending Indianapolis Center
06:08PM 40.3000 -81.9106 16° North 374 430 20,200 -1,440 Descending Indianapolis Center
06:09PM 40.3997 -81.8700 17° North 370 426 18,600 -1,500 Descending Cleveland Center
06:10PM 40.4919 -81.8308 18° North 358 412 17,200 -1,320 Descending Cleveland Center
06:11PM 40.5819 -81.7969 16° North 339 390 16,000 -600 Descending Cleveland Center
06:12PM 40.6781 -81.7578 17° North 346 398 16,000  Level Cleveland Center
06:13PM 40.7514 -81.7314 15° North 368 423 16,000 -240 Level Cleveland Center
06:13PM 40.7828 -81.7156 21° North 354 407 15,800 -1,620 Descending Cleveland Center
06:13PM 40.8308 -81.7000 14° North 364 419 14,700 -2,100 Descending Cleveland Center
06:14PM 40.8792 -81.6789 18° North 354 407 13,700 -2,640 Descending Cleveland Center
06:14PM 40.9231 -81.6603 18° North 352 405 12,100 -2,700 Descending Cleveland Center
06:15PM 40.9689 -81.6472 12° North 347 399 11,000 -2,100 Descending Cleveland Center
06:15PM 41.0106 -81.6617 345° North 296 341 10,000 -1,920 Descending Cleveland Center
06:16PM 41.0500 -81.6681 353° North 307 353 9,100 -1,140 Descending Cleveland Center
06:16PM 41.0878 -81.6575 12° North 281 323 8,900 -840 Descending Cleveland Center
06:17PM 41.1233 -81.6361 24° Northeast 273 314 8,300 -1,320 Descending Cleveland Center
06:17PM 41.1589 -81.6200 19° North 269 310 7,600 -1,320 Descending Cleveland Center
06:18PM 41.1944 -81.6014 21° North 266 306 7,000 -1,380 Descending Cleveland Center
06:19PM 41.2406 -81.5800 19° North 303 349 6,200 -1,320 Descending Cleveland Center
06:19PM 41.2719 -81.5639 21° North 283 326 5,700 -1,260 Descending Cleveland Center
06:19PM 41.3056 -81.5478 20° North 278 320 5,100 -1,200 Descending Cleveland Center
06:20PM 41.3431 -81.5289 21° North 278 320 4,500 -1,140 Descending Cleveland Center
06:20PM 41.3767 -81.5156 17° North 258 297 4,000 -540 Descending Cleveland Center
06:21PM 41.4100 -81.5050 13° North 262 302 4,000  Level Cleveland Center
06:21PM 41.4394 -81.4972 11° North 217 250 4,000  Level Cleveland Center
06:22PM 41.4686 -81.5003 356° North 227 261 4,000  Level Cleveland Center
06:22PM 41.4956 -81.5147 338° Northwest 204 235 4,000 -540 Level Cleveland Center
06:23PM 41.5517 -81.5347 345° North 221 254 3,200 -720 Descending Cleveland Center
06:24PM 41.5969 -81.5939 316° Northwest 226 260 2,600 -660 Descending Cleveland Center
06:25PM 41.5900 -81.6631 262° West 227 261 2,000 -360 Descending Cleveland Center
06:26PM 41.5561 -81.7208 232° Southwest 198 228 2,000 -240 Level Cleveland Center
06:27PM 41.5203 -81.7561 216° Southwest 163 188 1,600 -540 Descending Cleveland Center
06:28PM 41.5042 -81.7172 119° Southeast 113 130 1,000 -600 Descending Cleveland Center